createdAt,value
2022-11-29T00:00:55.253Z,6.10
2022-11-29T00:04:57.513Z,6.10
2022-11-29T00:09:08.246Z,6.20
2022-11-29T00:13:10.272Z,6.10
2022-11-29T00:17:12.234Z,6.20
2022-11-29T00:21:14.514Z,6.20
2022-11-29T00:25:16.667Z,6.20
2022-11-29T00:29:24.371Z,6.20
2022-11-29T00:33:26.343Z,6.20
2022-11-29T00:37:32.646Z,6.20
2022-11-29T00:41:36.432Z,6.30
2022-11-29T00:45:38.641Z,6.30
2022-11-29T00:49:43.156Z,6.30
2022-11-29T00:53:45.227Z,6.30
2022-11-29T00:57:50.891Z,6.40
2022-11-29T01:01:58.111Z,6.40
2022-11-29T01:06:11.259Z,6.40
2022-11-29T01:10:22.712Z,6.40
2022-11-29T01:15:13.464Z,6.50
2022-11-29T01:19:36.243Z,6.60
2022-11-29T01:23:41.315Z,6.50
2022-11-29T01:27:45.650Z,6.40
2022-11-29T01:31:53.946Z,6.50
2022-11-29T01:35:56.051Z,6.60
2022-11-29T01:39:59.303Z,6.50
2022-11-29T01:44:29.287Z,6.50
2022-11-29T01:49:12.968Z,6.50
2022-11-29T01:53:34.846Z,6.50
2022-11-29T01:57:37.415Z,6.50
2022-11-29T02:01:59.803Z,6.50
2022-11-29T02:06:26.903Z,6.50
2022-11-29T02:11:07.904Z,6.60
2022-11-29T02:15:51.539Z,6.60
2022-11-29T02:20:38.759Z,6.40
2022-11-29T02:25:36.452Z,6.50
2022-11-29T02:30:07.137Z,6.40
2022-11-29T02:34:39.936Z,6.40
2022-11-29T02:39:04.497Z,6.40
2022-11-29T02:43:32.810Z,6.40
2022-11-29T02:47:55.876Z,6.30
2022-11-29T02:52:04.576Z,6.30
2022-11-29T02:56:23.952Z,6.30
2022-11-29T03:00:38.158Z,6.30
2022-11-29T03:05:00.908Z,6.20
2022-11-29T03:09:51.817Z,6.20
2022-11-29T03:14:03.832Z,6.20
2022-11-29T03:19:15.836Z,6.10
2022-11-29T03:24:10.760Z,6.10
2022-11-29T03:28:36.714Z,6.10
2022-11-29T03:33:03.184Z,6.10
2022-11-29T03:37:30.019Z,6.00
2022-11-29T03:41:52.189Z,6.10
2022-11-29T03:46:03.826Z,6.10
2022-11-29T03:50:16.378Z,6.00
2022-11-29T03:55:22.841Z,6.00
2022-11-29T04:00:12.746Z,6.00
2022-11-29T04:09:56.171Z,5.90
2022-11-29T04:14:24.749Z,5.80
2022-11-29T04:18:56.615Z,5.80
2022-11-29T04:24:06.437Z,5.80
2022-11-29T04:28:48.989Z,5.80
2022-11-29T04:33:14.113Z,5.80
2022-11-29T04:42:57.840Z,5.80
2022-11-29T04:53:35.527Z,5.80
2022-11-29T05:03:57.598Z,5.80
2022-11-29T05:08:39.671Z,5.70
2022-11-29T05:13:13.462Z,5.80
2022-11-29T05:18:46.074Z,5.80
2022-11-29T05:23:43.729Z,5.80
2022-11-29T05:28:40.776Z,5.80
2022-11-29T05:34:10.027Z,5.80
2022-11-29T05:38:34.207Z,5.80
2022-11-29T05:43:26.292Z,5.80
2022-11-29T05:47:42.567Z,5.80
2022-11-29T05:53:29.018Z,5.80
2022-11-29T05:57:46.809Z,5.70
2022-11-29T06:02:34.701Z,5.80
2022-11-29T06:07:17.878Z,5.80
2022-11-29T06:12:55.872Z,5.80
2022-11-29T06:18:13.587Z,5.80
2022-11-29T07:21:35.127Z,5.70
2022-11-29T07:31:37.109Z,5.80
2022-11-29T07:36:33.625Z,5.80
2022-11-29T07:40:37.787Z,5.80
2022-11-29T07:45:30.922Z,5.90
2022-11-29T07:49:35.825Z,5.90
2022-11-29T07:53:44.172Z,5.90
2022-11-29T07:58:09.827Z,6.00
2022-11-29T08:02:15.200Z,6.00
2022-11-29T08:06:56.334Z,6.00
2022-11-29T08:11:05.916Z,6.00
2022-11-29T08:15:28.258Z,6.00
2022-11-29T08:25:55.638Z,6.10
2022-11-29T08:29:59.668Z,6.10
2022-11-29T08:34:06.967Z,6.10
2022-11-29T08:38:11.301Z,6.10
2022-11-29T08:47:47.971Z,6.20
2022-11-29T08:52:12.907Z,6.30
2022-11-29T09:00:59.981Z,6.30
2022-11-29T09:05:22.344Z,6.30
2022-11-29T09:09:32.512Z,6.30
2022-11-29T09:14:17.808Z,6.30
2022-11-29T09:18:48.510Z,6.30
2022-11-29T09:23:16.429Z,6.30
2022-11-29T09:27:24.530Z,6.30
2022-11-29T09:32:09.482Z,6.30
2022-11-29T09:36:16.576Z,6.30
2022-11-29T09:40:34.621Z,6.30
2022-11-29T09:45:11.864Z,6.40
2022-11-29T09:49:51.548Z,6.50
2022-11-29T09:55:36.536Z,6.50
2022-11-29T10:00:49.820Z,6.50
2022-11-29T10:06:07.618Z,6.60
2022-11-29T10:11:50.553Z,6.60
2022-11-29T10:21:57.077Z,6.80
2022-11-29T10:26:04.032Z,6.80
2022-11-29T12:06:03.267Z,7.20
2022-11-29T12:15:38.753Z,7.20
2022-11-29T12:20:47.916Z,7.10
2022-11-29T12:25:02.895Z,7.10
2022-11-29T12:34:47.906Z,7.10
2022-11-29T12:39:50.837Z,7.00
2022-11-29T12:56:43.205Z,7.10
2022-11-29T13:01:41.630Z,7.10
2022-11-29T13:07:00.483Z,7.10
2022-11-29T13:17:54.392Z,7.10
2022-11-29T13:29:12.580Z,7.10
2022-11-29T13:34:37.923Z,7.10
2022-11-29T13:45:14.330Z,7.10
2022-11-29T13:50:11.385Z,7.00
2022-11-29T13:55:14.451Z,7.00
2022-11-29T14:11:29.012Z,6.90
2022-11-29T14:15:36.479Z,6.80
2022-11-29T14:53:07.824Z,6.60
2022-11-29T15:03:18.117Z,6.50
2022-11-29T15:07:29.622Z,6.50
2022-11-29T15:12:09.549Z,6.60
2022-11-29T15:17:05.082Z,6.50
2022-11-29T15:26:22.963Z,6.50
2022-11-29T15:50:35.716Z,6.30
2022-11-29T15:55:50.475Z,6.30
2022-11-29T16:00:48.729Z,6.30
2022-11-29T16:42:58.656Z,6.10
2022-11-29T16:48:38.002Z,6.10
2022-11-29T16:53:12.821Z,6.10
2022-11-29T16:58:25.640Z,6.20
2022-11-29T17:03:46.018Z,6.20
2022-11-29T19:11:46.944Z,6.20
2022-11-29T19:15:56.089Z,6.20
2022-11-29T19:20:22.865Z,6.20
2022-11-29T19:24:26.826Z,6.20
2022-11-29T19:28:40.049Z,6.20
2022-11-29T19:32:57.363Z,6.20
2022-11-29T19:37:11.886Z,6.20
2022-11-29T19:41:47.429Z,6.20
2022-11-29T19:46:04.078Z,6.20
2022-11-29T19:50:34.413Z,6.20
2022-11-29T19:55:56.303Z,6.20
2022-11-29T20:00:22.579Z,6.20
2022-11-29T20:04:33.154Z,6.20
2022-11-29T20:08:39.149Z,6.10
2022-11-29T20:12:41.128Z,6.10
2022-11-29T20:16:53.374Z,6.10
2022-11-29T20:21:24.116Z,6.10
2022-11-29T20:25:29.143Z,6.00
2022-11-29T20:29:33.611Z,6.00
2022-11-29T20:33:36.042Z,5.90
2022-11-29T20:38:17.282Z,6.00
2022-11-29T20:42:58.661Z,6.00
2022-11-29T20:47:03.530Z,5.90
2022-11-29T20:51:08.461Z,5.80
2022-11-29T20:55:10.475Z,5.80
2022-11-29T20:59:12.500Z,5.80
2022-11-29T21:03:17.556Z,5.80
2022-11-29T21:08:18.562Z,5.80
2022-11-29T21:12:38.684Z,5.60
2022-11-29T21:17:11.099Z,5.50
2022-11-29T21:21:47.683Z,5.50
2022-11-29T21:26:10.339Z,5.40
2022-11-29T21:30:24.185Z,5.30
2022-11-29T21:34:28.660Z,5.30
2022-11-29T21:38:32.879Z,5.30
2022-11-29T21:47:03.099Z,5.20
2022-11-29T21:51:10.191Z,5.20
2022-11-29T21:55:12.232Z,5.20
2022-11-29T21:59:28.465Z,5.20
2022-11-29T22:03:32.210Z,5.20
2022-11-29T22:07:34.386Z,5.20
2022-11-29T22:11:37.685Z,5.20
2022-11-29T22:15:39.679Z,5.20
2022-11-29T22:19:43.736Z,5.20
2022-11-29T22:23:45.620Z,5.20
2022-11-29T22:27:49.609Z,5.20
2022-11-29T22:31:53.676Z,5.20
2022-11-29T22:35:55.558Z,5.20
2022-11-29T22:39:57.790Z,5.20
2022-11-29T22:43:59.762Z,5.30
2022-11-29T22:48:01.659Z,5.30
2022-11-29T22:52:03.572Z,5.30
2022-11-29T22:56:07.622Z,5.30
2022-11-29T23:00:11.075Z,5.30
2022-11-29T23:04:14.061Z,5.30
2022-11-29T23:08:19.191Z,5.20
2022-11-29T23:12:21.057Z,5.30
2022-11-29T23:16:28.106Z,5.20
2022-11-29T23:20:30.233Z,5.20
2022-11-29T23:24:32.215Z,5.20
2022-11-29T23:28:34.470Z,5.20
2022-11-29T23:32:36.349Z,5.20
2022-11-29T23:36:38.213Z,5.20
2022-11-29T23:40:40.195Z,5.20
2022-11-29T23:44:42.103Z,5.20
2022-11-29T23:48:44.274Z,5.20
2022-11-29T23:52:51.629Z,5.20
2022-11-29T23:56:53.507Z,5.10
